Time;durP1;ratioP1;P1;durP2;ratioP2;P2;SDS_P1;SDS_P2;PMS_P1;PMS_P2;Temp;Humidity;BMP_temperature;BMP_pressure;BME280_temperature;BME280_humidity;BME280_pressure;Samples;Min_cycle;Max_cycle;Signal;HPM_P1;HPM_P2
2024/02/16 00:00:31;;;;;;;6.07;1.02;;;12.00;99.90;;;;;;5024861;28;20046;-83
2024/02/16 00:02:59;;;;;;;3.17;1.20;;;12.00;99.90;;;;;;5025439;28;20523;-83
2024/02/16 00:05:24;;;;;;;3.95;0.90;;;12.00;99.90;;;;;;5025155;28;20064;-83
2024/02/16 00:07:50;;;;;;;3.72;1.10;;;12.00;99.90;;;;;;5025699;28;20392;-83
2024/02/16 00:10:19;;;;;;;3.75;1.17;;;12.00;99.90;;;;;;5025789;28;20029;-82
2024/02/16 00:12:44;;;;;;;2.83;0.88;;;12.00;99.90;;;;;;5025181;28;20021;-82
2024/02/16 00:15:10;;;;;;;3.53;1.77;;;12.00;99.90;;;;;;5025668;28;20045;-83
2024/02/16 00:17:37;;;;;;;3.17;0.80;;;11.90;99.90;;;;;;5024897;28;20061;-83
2024/02/16 00:20:03;;;;;;;4.60;1.73;;;12.00;99.90;;;;;;5043567;28;20017;-83
2024/02/16 00:22:29;;;;;;;5.88;1.40;;;12.00;99.90;;;;;;5025256;28;20042;-82
2024/02/16 00:24:55;;;;;;;3.50;1.05;;;12.00;99.90;;;;;;5043432;28;20028;-82
2024/02/16 00:27:21;;;;;;;5.10;1.30;;;12.00;99.90;;;;;;5025758;28;20029;-82
2024/02/16 00:29:46;;;;;;;5.78;1.10;;;12.00;99.90;;;;;;5024952;28;20034;-82
2024/02/16 00:32:12;;;;;;;2.42;1.17;;;12.00;99.90;;;;;;5025241;28;20026;-82
2024/02/16 00:34:41;;;;;;;3.78;1.02;;;12.00;99.90;;;;;;5024771;28;20017;-82
2024/02/16 00:37:11;;;;;;;4.20;1.15;;;12.00;99.90;;;;;;5025287;28;20492;-82
2024/02/16 00:39:40;;;;;;;2.25;0.98;;;11.90;99.90;;;;;;5025266;28;20048;-82
2024/02/16 00:42:06;;;;;;;6.65;1.08;;;11.90;99.90;;;;;;5043831;28;20435;-83
2024/02/16 00:44:32;;;;;;;4.35;1.33;;;11.90;99.90;;;;;;5025513;28;20424;-82
2024/02/16 00:46:58;;;;;;;4.13;1.00;;;11.90;99.90;;;;;;5024256;28;20033;-83
2024/02/16 00:49:24;;;;;;;4.38;1.27;;;11.90;99.90;;;;;;5024891;28;20123;-82
2024/02/16 00:51:50;;;;;;;4.05;1.42;;;11.90;99.90;;;;;;5024605;28;20025;-82
2024/02/16 00:54:17;;;;;;;5.07;1.23;;;11.90;99.90;;;;;;5042924;28;20053;-83
2024/02/16 00:56:42;;;;;;;2.80;1.10;;;11.90;99.90;;;;;;5024601;28;20081;-83
2024/02/16 00:59:09;;;;;;;7.50;1.10;;;11.90;99.90;;;;;;5024686;28;20028;-83
2024/02/16 01:01:35;;;;;;;5.32;1.17;;;11.90;99.90;;;;;;5024371;28;20095;-82
2024/02/16 01:04:02;;;;;;;3.25;1.00;;;11.80;99.90;;;;;;5042255;28;20097;-83
2024/02/16 01:06:28;;;;;;;4.03;1.38;;;11.90;99.90;;;;;;5024850;28;20142;-83
2024/02/16 01:08:53;;;;;;;5.85;1.45;;;11.90;99.90;;;;;;5024138;28;20025;-83
2024/02/16 01:11:19;;;;;;;3.63;0.90;;;11.80;99.90;;;;;;5024499;28;20028;-83
2024/02/16 01:13:46;;;;;;;4.47;1.38;;;11.90;99.90;;;;;;5024145;28;20025;-82
2024/02/16 01:16:12;;;;;;;3.30;1.13;;;11.90;99.90;;;;;;5024112;28;20029;-82
2024/02/16 01:18:39;;;;;;;3.20;1.27;;;11.90;99.90;;;;;;5023459;28;20022;-83
2024/02/16 01:21:05;;;;;;;3.33;1.00;;;11.80;99.90;;;;;;5024111;28;20013;-82
2024/02/16 01:23:31;;;;;;;4.07;1.13;;;11.80;99.90;;;;;;5024556;28;20033;-83
2024/02/16 01:25:57;;;;;;;3.67;1.08;;;11.80;99.90;;;;;;5023787;28;20030;-82
2024/02/16 01:28:23;;;;;;;9.05;1.80;;;11.80;99.90;;;;;;5024526;28;20477;-83
2024/02/16 01:30:49;;;;;;;3.10;1.15;;;11.80;99.90;;;;;;5023676;28;20068;-83
2024/02/16 01:33:14;;;;;;;4.30;1.45;;;11.80;99.90;;;;;;5024729;28;20021;-83
2024/02/16 01:35:40;;;;;;;4.40;1.50;;;11.80;99.90;;;;;;5024476;28;20399;-83
2024/02/16 01:38:06;;;;;;;3.17;1.30;;;11.70;99.90;;;;;;5023911;28;20014;-83
2024/02/16 01:40:32;;;;;;;3.55;1.23;;;11.70;99.90;;;;;;5023987;28;20017;-83
2024/02/16 01:42:58;;;;;;;4.68;1.38;;;11.70;99.90;;;;;;5023153;28;20037;-83
2024/02/16 01:45:23;;;;;;;4.38;0.93;;;11.70;99.90;;;;;;5023903;28;20021;-82
2024/02/16 01:47:51;;;;;;;4.85;1.40;;;11.70;99.90;;;;;;5006501;28;20033;-82
2024/02/16 01:50:17;;;;;;;5.35;1.10;;;11.70;99.90;;;;;;5024237;28;20101;-82
2024/02/16 01:52:44;;;;;;;3.50;1.52;;;11.70;99.90;;;;;;5024006;28;20104;-82
2024/02/16 01:55:10;;;;;;;3.22;1.00;;;11.60;99.90;;;;;;5023730;28;20041;-83
2024/02/16 01:57:42;;;;;;;5.07;1.27;;;11.60;99.90;;;;;;5023707;28;20014;-82
2024/02/16 02:00:08;;;;;;;4.43;1.30;;;11.60;99.90;;;;;;5023424;28;20026;-83
2024/02/16 02:02:37;;;;;;;3.40;1.20;;;11.60;99.90;;;;;;5023812;28;20037;-83
2024/02/16 02:05:03;;;;;;;4.13;1.20;;;11.60;99.90;;;;;;5023206;28;20033;-83
2024/02/16 02:07:30;;;;;;;4.93;1.27;;;11.60;99.90;;;;;;5023911;28;20032;-80
2024/02/16 02:09:56;;;;;;;3.45;1.00;;;11.50;99.90;;;;;;5023668;28;20089;-83
2024/02/16 02:12:22;;;;;;;6.57;1.75;;;11.50;99.90;;;;;;5023389;28;20029;-81
2024/02/16 02:14:51;;;;;;;4.45;1.38;;;11.50;99.90;;;;;;5023797;28;20052;-82
2024/02/16 02:17:18;;;;;;;3.45;1.40;;;11.50;99.90;;;;;;5023114;28;20079;-82
2024/02/16 02:19:45;;;;;;;5.93;1.40;;;11.50;99.90;;;;;;5023910;28;20022;-82
2024/02/16 02:22:17;;;;;;;3.83;1.30;;;11.50;99.90;;;;;;5023238;28;20013;-80
2024/02/16 02:24:44;;;;;;;3.15;1.10;;;11.50;99.90;;;;;;5023876;28;20037;-82
2024/02/16 02:27:10;;;;;;;4.00;1.48;;;11.50;99.90;;;;;;5023633;28;20049;-82
2024/02/16 02:29:36;;;;;;;3.88;1.38;;;11.50;99.90;;;;;;5041957;28;20067;-82
2024/02/16 02:32:02;;;;;;;4.63;1.35;;;11.40;99.90;;;;;;5045549;28;20049;-82
2024/02/16 02:34:27;;;;;;;4.05;1.58;;;11.40;99.90;;;;;;5027666;28;20094;-82
2024/02/16 02:36:53;;;;;;;6.28;1.50;;;11.50;99.90;;;;;;5028740;28;20025;-82
2024/02/16 02:39:19;;;;;;;6.70;2.05;;;11.40;99.90;;;;;;5027524;28;20033;-82
2024/02/16 02:41:44;;;;;;;5.00;1.40;;;11.40;99.90;;;;;;5028042;28;20017;-82
2024/02/16 02:44:11;;;;;;;4.80;1.75;;;11.40;99.90;;;;;;5028106;28;20037;-81
2024/02/16 02:46:37;;;;;;;6.10;1.85;;;11.40;99.90;;;;;;5027621;28;20085;-82
2024/02/16 02:49:03;;;;;;;4.43;1.50;;;11.40;99.90;;;;;;5028134;28;20026;-82
2024/02/16 02:51:29;;;;;;;3.72;1.30;;;11.30;99.90;;;;;;5027271;28;20065;-82
2024/02/16 02:53:55;;;;;;;3.28;1.25;;;11.30;99.90;;;;;;5024254;28;20045;-82
2024/02/16 02:56:21;;;;;;;3.47;1.65;;;11.20;99.90;;;;;;5023447;28;20497;-82
2024/02/16 02:58:46;;;;;;;4.47;1.90;;;11.20;99.90;;;;;;5024182;28;20117;-82
2024/02/16 03:01:13;;;;;;;4.45;1.38;;;11.20;99.90;;;;;;5023657;28;20038;-81
2024/02/16 03:03:40;;;;;;;6.93;1.83;;;11.20;99.90;;;;;;5024194;28;20477;-81
2024/02/16 03:06:07;;;;;;;4.00;1.55;;;11.20;99.90;;;;;;5023790;28;20025;-82
2024/02/16 03:08:33;;;;;;;4.10;1.17;;;11.20;99.90;;;;;;5023719;28;20052;-81
2024/02/16 03:11:00;;;;;;;4.32;1.50;;;11.20;99.90;;;;;;5023470;28;20026;-81
2024/02/16 03:13:26;;;;;;;4.03;1.20;;;11.30;99.90;;;;;;5023177;28;20037;-82
2024/02/16 03:15:52;;;;;;;6.82;1.30;;;11.30;99.90;;;;;;5023951;28;20045;-81
2024/02/16 03:18:19;;;;;;;6.28;1.23;;;11.30;99.90;;;;;;5023631;28;20042;-82
2024/02/16 03:20:48;;;;;;;3.38;1.30;;;11.40;99.90;;;;;;5023746;28;20018;-81
2024/02/16 03:23:14;;;;;;;4.97;1.48;;;11.40;99.90;;;;;;5023695;28;20390;-81
2024/02/16 03:25:40;;;;;;;4.18;1.38;;;11.40;99.90;;;;;;5022534;28;20528;-81
2024/02/16 03:28:09;;;;;;;4.50;1.48;;;11.40;99.90;;;;;;5023420;28;20022;-82
2024/02/16 03:30:35;;;;;;;5.65;1.45;;;11.40;99.90;;;;;;5024250;28;20026;-81
2024/02/16 03:33:00;;;;;;;4.20;1.23;;;11.40;99.90;;;;;;5023806;28;20835;-82
2024/02/16 03:35:27;;;;;;;6.13;1.33;;;11.40;99.90;;;;;;5022835;28;20025;-82
2024/02/16 03:37:53;;;;;;;4.82;1.10;;;11.40;99.90;;;;;;5023397;28;20033;-81
2024/02/16 03:40:19;;;;;;;4.50;1.50;;;11.40;99.90;;;;;;5022906;28;20026;-82
2024/02/16 03:42:44;;;;;;;4.68;1.63;;;11.40;99.90;;;;;;5022435;28;20583;-81
2024/02/16 03:45:11;;;;;;;4.40;1.38;;;11.40;99.90;;;;;;5022812;28;20476;-82
2024/02/16 03:47:36;;;;;;;3.80;1.40;;;11.40;99.90;;;;;;5022057;28;20053;-82
2024/02/16 03:50:03;;;;;;;5.45;1.52;;;11.50;99.90;;;;;;5022928;28;20747;-83
2024/02/16 03:52:28;;;;;;;7.65;1.63;;;11.60;99.90;;;;;;5021982;28;20026;-82
2024/02/16 03:54:54;;;;;;;4.32;1.65;;;11.60;99.90;;;;;;5022358;28;20060;-82
2024/02/16 03:57:20;;;;;;;3.97;1.20;;;11.70;99.90;;;;;;5022863;28;20088;-82
2024/02/16 03:59:46;;;;;;;4.65;1.88;;;11.80;99.90;;;;;;5022463;28;20025;-81
2024/02/16 04:02:15;;;;;;;4.18;1.50;;;11.80;99.90;;;;;;5022582;28;20041;-82
2024/02/16 04:04:41;;;;;;;6.38;1.50;;;11.90;99.90;;;;;;5022077;28;20549;-81
2024/02/16 04:07:07;;;;;;;3.83;1.48;;;11.90;99.90;;;;;;5024098;28;20047;-82
2024/02/16 04:09:34;;;;;;;4.55;1.50;;;12.00;99.90;;;;;;5022090;28;20049;-82
2024/02/16 04:12:01;;;;;;;5.90;1.50;;;12.10;99.90;;;;;;5022403;28;20113;-82
2024/02/16 04:14:26;;;;;;;4.60;1.63;;;12.10;99.90;;;;;;5022504;28;20089;-82
2024/02/16 04:16:52;;;;;;;4.60;1.60;;;12.10;99.90;;;;;;5022251;28;20054;-82
2024/02/16 04:19:18;;;;;;;5.75;1.55;;;12.10;99.90;;;;;;5023913;28;20026;-82
2024/02/16 04:21:44;;;;;;;5.38;1.25;;;12.20;99.90;;;;;;5021608;28;20022;-82
2024/02/16 04:24:10;;;;;;;5.15;1.15;;;12.20;99.90;;;;;;5021843;28;20030;-82
2024/02/16 04:26:35;;;;;;;4.93;1.42;;;12.20;99.90;;;;;;5021594;28;20045;-82
2024/02/16 04:29:04;;;;;;;5.03;1.45;;;12.20;99.90;;;;;;5022211;28;20478;-82
2024/02/16 04:31:29;;;;;;;5.10;1.30;;;12.30;99.90;;;;;;5022151;28;20076;-82
2024/02/16 04:33:55;;;;;;;3.45;1.10;;;12.30;99.90;;;;;;5021403;28;20026;-81
2024/02/16 04:36:21;;;;;;;3.63;1.50;;;12.30;99.90;;;;;;5022134;28;20076;-82
2024/02/16 04:38:47;;;;;;;5.13;1.40;;;12.40;99.90;;;;;;5021439;28;20107;-82
2024/02/16 04:41:13;;;;;;;5.40;1.60;;;12.30;99.90;;;;;;5021866;28;20047;-82
2024/02/16 04:43:39;;;;;;;4.03;1.60;;;12.40;99.90;;;;;;5021487;28;20037;-82
2024/02/16 04:46:05;;;;;;;4.13;1.35;;;12.40;99.90;;;;;;5022096;28;20030;-81
2024/02/16 04:48:32;;;;;;;4.82;1.15;;;12.30;99.90;;;;;;5020806;28;20032;-82
2024/02/16 04:50:57;;;;;;;5.03;1.73;;;12.40;99.90;;;;;;5021531;28;20053;-82
2024/02/16 04:53:23;;;;;;;6.47;1.70;;;12.40;99.90;;;;;;5021873;28;20091;-83
2024/02/16 04:55:49;;;;;;;6.57;2.08;;;12.40;99.90;;;;;;5019991;28;20046;-82
2024/02/16 04:58:14;;;;;;;4.20;1.52;;;12.40;99.90;;;;;;5020537;28;20026;-82
2024/02/16 05:00:40;;;;;;;5.63;1.95;;;12.50;99.90;;;;;;5019586;28;20018;-83
2024/02/16 05:03:06;;;;;;;5.13;1.55;;;12.50;99.90;;;;;;5022003;28;20037;-82
2024/02/16 05:05:32;;;;;;;5.10;1.70;;;12.50;99.90;;;;;;5019651;28;20120;-82
2024/02/16 05:07:58;;;;;;;5.55;1.60;;;12.50;99.90;;;;;;5020638;28;20076;-82
2024/02/16 05:10:24;;;;;;;3.03;1.23;;;12.50;99.90;;;;;;5019754;28;20114;-81
2024/02/16 05:12:49;;;;;;;5.85;2.38;;;12.50;99.90;;;;;;5020390;28;20603;-82
2024/02/16 05:15:16;;;;;;;4.30;1.65;;;12.50;99.90;;;;;;5020048;28;20030;-81
2024/02/16 05:17:47;;;;;;;4.65;2.03;;;12.50;99.90;;;;;;5019591;28;20048;-82
2024/02/16 05:20:16;;;;;;;4.68;1.60;;;12.50;99.90;;;;;;5020319;28;20121;-82
2024/02/16 05:22:43;;;;;;;5.07;1.80;;;12.50;99.90;;;;;;5020422;28;20485;-82
2024/02/16 05:25:10;;;;;;;5.97;1.98;;;12.50;99.90;;;;;;5020359;28;20026;-82
2024/02/16 05:27:37;;;;;;;5.53;1.58;;;12.50;99.90;;;;;;5019681;28;20018;-82
2024/02/16 05:30:07;;;;;;;6.13;1.90;;;12.50;99.90;;;;;;5021415;28;20034;-83
2024/02/16 05:32:36;;;;;;;4.07;1.40;;;12.50;99.90;;;;;;5020213;28;20145;-82
2024/02/16 05:35:14;;;;;;;6.85;1.88;;;12.50;99.90;;;;;;5021823;28;20014;-83
2024/02/16 05:37:43;;;;;;;5.53;1.60;;;12.60;99.90;;;;;;5031070;28;20026;-82
2024/02/16 05:40:22;;;;;;;7.10;1.73;;;12.50;99.90;;;;;;5036078;28;20017;-82
2024/02/16 05:42:48;;;;;;;4.82;1.77;;;12.50;99.90;;;;;;5039337;28;20021;-83
2024/02/16 05:45:17;;;;;;;5.13;1.60;;;12.50;99.90;;;;;;5031911;28;20037;-82
2024/02/16 05:47:45;;;;;;;3.58;1.50;;;12.50;99.90;;;;;;5018765;28;20042;-83
2024/02/16 05:50:12;;;;;;;6.78;2.05;;;12.50;99.90;;;;;;5019445;28;20065;-82
2024/02/16 05:52:38;;;;;;;3.17;1.42;;;12.60;99.90;;;;;;5018898;28;20097;-83
2024/02/16 05:55:06;;;;;;;4.50;1.58;;;12.60;99.90;;;;;;5027306;28;20058;-81
2024/02/16 05:57:31;;;;;;;6.35;1.92;;;12.60;99.90;;;;;;5018780;28;20026;-82
2024/02/16 05:59:57;;;;;;;4.53;1.42;;;12.60;99.90;;;;;;5019192;28;20032;-83
2024/02/16 06:02:25;;;;;;;6.50;1.80;;;12.60;99.90;;;;;;5019392;28;20359;-82
2024/02/16 06:04:52;;;;;;;6.10;2.15;;;12.60;99.90;;;;;;5018330;28;20022;-82
2024/02/16 06:07:17;;;;;;;6.57;2.08;;;12.60;99.90;;;;;;5019485;28;20025;-83
2024/02/16 06:09:43;;;;;;;4.60;1.30;;;12.60;99.90;;;;;;5001851;28;20045;-83
2024/02/16 06:12:09;;;;;;;5.90;1.80;;;12.60;99.90;;;;;;5019552;28;20036;-82
2024/02/16 06:14:36;;;;;;;6.35;2.55;;;12.60;99.90;;;;;;5019151;28;20018;-82
2024/02/16 06:17:02;;;;;;;4.97;1.95;;;12.60;99.90;;;;;;5036114;28;20113;-83
2024/02/16 06:19:28;;;;;;;5.65;1.75;;;12.60;99.90;;;;;;5035634;28;20045;-82
2024/02/16 06:21:54;;;;;;;4.68;1.67;;;12.60;99.90;;;;;;5018626;28;20526;-83
2024/02/16 06:24:21;;;;;;;8.15;1.83;;;12.60;99.90;;;;;;5018991;28;20048;-83
2024/02/16 06:26:48;;;;;;;4.80;1.77;;;12.60;99.90;;;;;;5017896;28;20050;-84
2024/02/16 06:29:13;;;;;;;6.05;1.83;;;12.60;99.90;;;;;;5019602;28;20058;-82
2024/02/16 06:31:39;;;;;;;5.57;1.95;;;12.60;99.90;;;;;;5018865;28;20022;-82
2024/02/16 06:34:05;;;;;;;5.78;1.63;;;12.60;99.90;;;;;;5020348;28;20102;-83
2024/02/16 06:36:30;;;;;;;5.15;1.92;;;12.60;99.90;;;;;;5018951;28;20048;-81
2024/02/16 06:38:56;;;;;;;5.07;1.65;;;12.60;99.90;;;;;;5019016;28;20500;-81
2024/02/16 06:41:22;;;;;;;5.88;1.65;;;12.60;99.90;;;;;;5018878;28;20105;-81
2024/02/16 06:43:47;;;;;;;5.32;1.55;;;12.60;99.90;;;;;;5031094;28;20034;-82
2024/02/16 06:46:13;;;;;;;5.65;2.10;;;12.60;99.90;;;;;;5038253;28;20025;-81
2024/02/16 06:48:39;;;;;;;5.72;1.58;;;12.60;99.90;;;;;;5036339;28;20056;-81
2024/02/16 06:51:04;;;;;;;5.88;1.80;;;12.70;99.90;;;;;;5020788;28;20517;-81
2024/02/16 06:53:30;;;;;;;4.55;1.88;;;12.70;99.90;;;;;;5019059;28;20494;-81
2024/02/16 06:55:56;;;;;;;4.85;2.03;;;12.60;99.90;;;;;;5018334;28;20049;-81
2024/02/16 06:58:21;;;;;;;4.88;1.65;;;12.70;99.90;;;;;;5020076;28;20049;-83
2024/02/16 07:00:47;;;;;;;5.72;2.00;;;12.60;99.90;;;;;;5038275;28;20094;-81
2024/02/16 07:03:13;;;;;;;4.95;1.83;;;12.60;99.90;;;;;;5039081;28;20049;-81
2024/02/16 07:05:40;;;;;;;5.85;1.85;;;12.60;99.90;;;;;;5037843;28;20056;-81
2024/02/16 07:08:07;;;;;;;6.63;1.77;;;12.60;99.90;;;;;;5038960;28;20021;-80
2024/02/16 07:10:33;;;;;;;5.78;1.95;;;12.60;99.90;;;;;;5039488;28;20081;-81
2024/02/16 07:12:59;;;;;;;4.50;1.77;;;12.60;99.90;;;;;;5038808;28;20033;-81
2024/02/16 07:15:26;;;;;;;5.82;1.70;;;12.60;99.90;;;;;;5038791;28;20554;-80
2024/02/16 07:17:51;;;;;;;5.13;1.67;;;12.70;99.90;;;;;;5040564;28;20017;-81
2024/02/16 07:20:18;;;;;;;4.20;1.83;;;12.60;99.90;;;;;;5042163;28;20049;-81
2024/02/16 07:22:46;;;;;;;4.80;1.65;;;12.70;99.90;;;;;;5041270;28;20057;-81
2024/02/16 07:25:12;;;;;;;5.93;1.95;;;12.70;99.90;;;;;;5042167;28;20023;-80
2024/02/16 07:27:38;;;;;;;5.82;2.10;;;12.70;99.90;;;;;;5041873;28;20021;-81
2024/02/16 07:30:04;;;;;;;6.25;1.70;;;12.70;99.90;;;;;;5041717;28;20029;-80
2024/02/16 07:32:30;;;;;;;5.30;2.13;;;12.70;99.90;;;;;;5041545;28;20067;-81
2024/02/16 07:34:56;;;;;;;4.47;1.80;;;12.70;99.90;;;;;;5041504;28;20065;-81
2024/02/16 07:37:22;;;;;;;4.68;1.70;;;12.70;99.90;;;;;;5042243;28;20018;-82
2024/02/16 07:39:47;;;;;;;5.70;2.03;;;12.70;99.90;;;;;;5040980;28;20017;-82
2024/02/16 07:42:13;;;;;;;8.52;1.90;;;12.80;99.90;;;;;;5042358;28;20037;-82
2024/02/16 07:44:39;;;;;;;6.18;1.90;;;12.80;99.90;;;;;;5041467;28;20057;-82
2024/02/16 07:47:05;;;;;;;7.13;2.13;;;12.80;99.90;;;;;;5041139;28;20029;-82
2024/02/16 07:49:31;;;;;;;4.57;1.77;;;12.90;99.90;;;;;;5041774;28;20029;-82
2024/02/16 07:52:00;;;;;;;7.38;2.25;;;12.80;99.90;;;;;;5041470;28;20021;-82
2024/02/16 07:54:25;;;;;;;7.28;2.45;;;12.90;99.90;;;;;;5041240;28;20044;-81
2024/02/16 07:56:51;;;;;;;6.40;2.20;;;12.90;99.90;;;;;;5062085;28;20080;-82
2024/02/16 07:59:18;;;;;;;6.43;2.33;;;12.90;99.90;;;;;;5045349;28;20029;-83
2024/02/16 08:01:45;;;;;;;6.28;2.00;;;12.90;99.90;;;;;;5044202;28;20021;-82
2024/02/16 08:04:11;;;;;;;5.55;2.03;;;12.90;99.90;;;;;;5062653;28;20093;-83
2024/02/16 08:06:37;;;;;;;7.78;2.08;;;13.00;99.90;;;;;;5062801;28;20096;-82
2024/02/16 08:09:04;;;;;;;5.75;1.92;;;13.00;99.90;;;;;;5042902;28;20036;-82
2024/02/16 08:11:30;;;;;;;7.60;2.30;;;13.00;99.90;;;;;;5043859;28;20013;-82
2024/02/16 08:14:00;;;;;;;7.57;2.20;;;13.00;99.90;;;;;;5062060;28;20079;-81
2024/02/16 08:16:26;;;;;;;4.38;2.28;;;13.10;99.90;;;;;;5044821;28;20031;-81
2024/02/16 08:18:52;;;;;;;4.55;1.88;;;13.10;99.90;;;;;;5042361;28;20020;-82
2024/02/16 08:21:18;;;;;;;7.80;2.42;;;13.10;99.90;;;;;;5043561;28;20314;-83
2024/02/16 08:23:43;;;;;;;3.85;1.90;;;13.20;99.90;;;;;;5043331;28;20024;-81
2024/02/16 08:26:09;;;;;;;4.65;1.98;;;13.20;99.90;;;;;;5043408;28;20030;-81
2024/02/16 08:28:35;;;;;;;6.38;2.30;;;13.20;99.90;;;;;;5043696;28;20058;-81
2024/02/16 08:31:00;;;;;;;6.88;2.40;;;13.30;99.90;;;;;;5042061;28;20075;-81
2024/02/16 08:33:26;;;;;;;9.10;2.75;;;13.30;99.90;;;;;;5043687;28;20020;-81
2024/02/16 08:35:52;;;;;;;8.73;2.58;;;13.30;99.90;;;;;;5042513;28;20056;-81
2024/02/16 08:38:18;;;;;;;5.30;2.00;;;13.30;99.90;;;;;;5043612;28;20025;-81
2024/02/16 08:40:43;;;;;;;4.88;1.77;;;13.30;99.90;;;;;;5043440;28;20028;-81
2024/02/16 08:43:09;;;;;;;4.57;1.80;;;13.40;99.90;;;;;;5043738;28;20078;-81
2024/02/16 08:45:35;;;;;;;5.07;1.67;;;13.40;99.90;;;;;;5059961;28;20024;-82
2024/02/16 08:48:03;;;;;;;6.80;2.50;;;13.50;99.90;;;;;;5042763;28;20033;-82
2024/02/16 08:50:29;;;;;;;8.00;2.78;;;13.50;99.90;;;;;;5043370;28;20040;-82
2024/02/16 08:52:56;;;;;;;5.82;2.10;;;13.50;99.90;;;;;;5042263;28;20029;-81
2024/02/16 08:55:21;;;;;;;4.72;1.90;;;13.60;99.90;;;;;;5039451;28;20121;-81
2024/02/16 08:57:47;;;;;;;8.77;2.22;;;13.70;99.90;;;;;;5039719;28;20052;-82
2024/02/16 09:00:15;;;;;;;6.55;2.15;;;13.70;99.90;;;;;;5031463;28;20045;-82
2024/02/16 09:02:41;;;;;;;6.15;2.08;;;13.70;99.90;;;;;;5020699;28;20030;-81
2024/02/16 09:05:09;;;;;;;9.02;2.45;;;13.80;99.90;;;;;;5019674;28;20026;-82
2024/02/16 09:07:35;;;;;;;4.50;1.92;;;13.80;99.90;;;;;;5033974;28;20017;-83
2024/02/16 09:10:01;;;;;;;6.22;2.40;;;13.90;99.90;;;;;;5033173;28;20022;-83
2024/02/16 09:12:27;;;;;;;5.70;2.20;;;13.80;99.90;;;;;;5039753;28;20022;-84
2024/02/16 09:14:53;;;;;;;6.35;2.10;;;13.80;99.90;;;;;;5038934;28;20544;-83
2024/02/16 09:17:20;;;;;;;4.72;2.30;;;13.90;99.90;;;;;;5040870;28;20021;-84
2024/02/16 09:19:46;;;;;;;5.95;2.63;;;13.90;99.90;;;;;;5039764;28;20068;-84
2024/02/16 09:22:11;;;;;;;5.30;2.50;;;14.00;99.90;;;;;;5040170;28;20029;-84
2024/02/16 09:24:37;;;;;;;5.15;2.40;;;14.00;99.90;;;;;;5039456;28;20045;-84
2024/02/16 09:27:04;;;;;;;6.72;2.47;;;14.00;99.90;;;;;;5040149;28;20053;-84
2024/02/16 09:29:31;;;;;;;11.50;2.65;;;14.10;99.90;;;;;;5041380;28;20061;-85
2024/02/16 09:31:56;;;;;;;9.93;2.70;;;14.10;99.90;;;;;;5038890;28;20464;-85
2024/02/16 09:34:22;;;;;;;7.93;2.60;;;14.10;99.90;;;;;;5039015;28;20119;-84
2024/02/16 09:36:47;;;;;;;8.32;2.80;;;14.10;99.90;;;;;;5039838;28;20485;-84
2024/02/16 09:39:13;;;;;;;8.80;2.72;;;14.20;99.90;;;;;;5040026;28;20096;-84
2024/02/16 09:41:42;;;;;;;5.63;2.30;;;14.10;99.90;;;;;;5040950;28;20561;-84
2024/02/16 09:44:08;;;;;;;6.90;3.17;;;14.10;99.90;;;;;;5039145;28;20065;-84
2024/02/16 09:46:34;;;;;;;6.38;2.60;;;14.10;99.90;;;;;;5040921;28;20026;-84
2024/02/16 09:49:02;;;;;;;8.35;3.42;;;14.10;99.90;;;;;;5037013;28;20033;-84
2024/02/16 09:51:29;;;;;;;9.23;2.95;;;14.10;99.90;;;;;;5038756;28;20040;-84
2024/02/16 09:53:57;;;;;;;10.20;3.17;;;14.10;99.90;;;;;;5038837;28;20021;-83
2024/02/16 09:56:26;;;;;;;6.75;3.03;;;14.10;99.90;;;;;;5053134;28;20068;-84
2024/02/16 09:58:52;;;;;;;7.22;3.00;;;14.20;99.90;;;;;;5042211;28;20025;-84
2024/02/16 10:01:21;;;;;;;7.30;2.67;;;14.20;99.90;;;;;;5059087;28;20047;-84
2024/02/16 10:03:49;;;;;;;6.60;2.50;;;14.20;99.90;;;;;;5039710;28;20417;-85
2024/02/16 10:06:17;;;;;;;7.25;3.25;;;14.20;99.90;;;;;;5041777;28;20029;-84
2024/02/16 10:08:56;;;;;;;8.25;3.38;;;14.20;99.90;;;;;;5042450;28;20051;-84
2024/02/16 10:11:28;;;;;;;7.25;2.90;;;14.30;99.90;;;;;;5060489;28;20047;-84
2024/02/16 10:14:04;;;;;;;5.38;2.55;;;14.30;99.90;;;;;;5059577;28;20085;-85
2024/02/16 10:16:31;;;;;;;8.60;3.55;;;14.30;99.90;;;;;;5060502;28;20094;-85
2024/02/16 10:19:04;;;;;;;7.50;2.75;;;14.40;99.90;;;;;;5041661;28;20028;-86
2024/02/16 10:21:30;;;;;;;7.20;2.60;;;14.40;99.90;;;;;;5060476;28;20086;-86
2024/02/16 10:24:02;;;;;;;7.57;3.28;;;14.40;99.90;;;;;;5060472;28;20102;-86
2024/02/16 10:26:28;;;;;;;7.45;3.22;;;14.40;99.90;;;;;;5041193;28;20048;-83
2024/02/16 10:28:58;;;;;;;8.32;3.03;;;14.40;99.90;;;;;;5041945;28;20075;-83
2024/02/16 10:31:28;;;;;;;7.20;2.95;;;14.40;99.90;;;;;;5059045;28;20082;-84
2024/02/16 10:33:58;;;;;;;8.25;2.90;;;14.40;99.90;;;;;;5042420;28;20032;-84
2024/02/16 10:36:28;;;;;;;7.97;3.47;;;14.30;99.90;;;;;;5041728;28;20078;-84
2024/02/16 10:38:54;;;;;;;7.38;3.28;;;14.30;99.90;;;;;;5059855;28;20031;-84
2024/02/16 10:41:24;;;;;;;7.20;2.75;;;14.30;99.90;;;;;;5041172;28;20025;-84
2024/02/16 10:43:50;;;;;;;8.15;3.60;;;14.30;99.90;;;;;;5055905;28;20369;-85
2024/02/16 10:46:16;;;;;;;9.20;2.92;;;14.30;99.90;;;;;;5059865;28;20104;-85
2024/02/16 10:48:42;;;;;;;9.02;3.78;;;14.20;99.90;;;;;;5058754;28;20052;-85
2024/02/16 10:51:09;;;;;;;12.20;3.25;;;14.20;99.90;;;;;;5042529;28;20032;-85
2024/02/16 10:53:36;;;;;;;8.63;3.28;;;14.20;99.90;;;;;;5063943;28;20029;-85
2024/02/16 10:56:02;;;;;;;7.88;3.50;;;14.20;99.90;;;;;;5045489;28;20045;-84
2024/02/16 10:58:31;;;;;;;7.45;3.47;;;14.20;99.90;;;;;;5046011;28;20430;-84
2024/02/16 11:00:57;;;;;;;10.98;3.50;;;14.20;99.90;;;;;;5044708;28;20044;-85
2024/02/16 11:03:24;;;;;;;10.70;3.60;;;14.20;99.90;;;;;;5045769;28;20044;-85
2024/02/16 11:05:51;;;;;;;8.38;3.42;;;14.10;99.90;;;;;;5044592;28;20025;-84
2024/02/16 11:08:19;;;;;;;7.45;3.90;;;14.10;99.90;;;;;;5063772;28;20032;-85
2024/02/16 11:11:02;;;;;;;12.82;4.43;;;14.10;99.90;;;;;;5062826;28;20388;-85
2024/02/16 11:13:32;;;;;;;8.63;4.10;;;14.10;99.90;;;;;;5045232;28;20032;-85
2024/02/16 11:16:00;;;;;;;9.07;3.70;;;14.00;99.90;;;;;;5063759;28;20381;-84
2024/02/16 11:18:30;;;;;;;9.40;5.18;;;14.00;99.90;;;;;;5044814;28;20378;-85
2024/02/16 11:20:59;;;;;;;8.68;3.33;;;13.90;99.90;;;;;;5047754;28;20017;-85
2024/02/16 11:23:29;;;;;;;9.63;4.38;;;13.90;99.90;;;;;;5044526;28;20075;-85
2024/02/16 11:26:03;;;;;;;9.70;4.45;;;13.90;99.90;;;;;;5046765;28;20067;-86
2024/02/16 11:28:33;;;;;;;;;;;13.80;99.90;;;;;;5064354;28;20080;-85
2024/02/16 11:30:59;;;;;;;9.65;5.03;;;13.80;99.90;;;;;;5062408;28;19994;-85
2024/02/16 11:33:27;;;;;;;10.50;5.47;;;13.70;99.90;;;;;;5045327;28;20017;-85
2024/02/16 11:36:01;;;;;;;11.48;6.18;;;13.70;99.90;;;;;;5044213;28;20067;-84
2024/02/16 11:38:27;;;;;;;12.43;6.00;;;13.60;99.90;;;;;;5063384;28;20028;-85
2024/02/16 11:40:54;;;;;;;12.55;6.72;;;13.40;99.90;;;;;;5062778;28;20021;-85
2024/02/16 11:43:24;;;;;;;12.57;7.18;;;13.40;99.90;;;;;;5044350;28;20040;-85
2024/02/16 11:45:50;;;;;;;14.93;7.85;;;13.30;99.90;;;;;;5045245;28;20372;-86
2024/02/16 11:48:23;;;;;;;13.63;8.40;;;13.20;99.90;;;;;;5062024;28;20033;-85
2024/02/16 11:50:58;;;;;;;13.90;8.18;;;13.10;99.90;;;;;;5044824;28;20094;-85
2024/02/16 11:53:23;;;;;;;13.75;8.35;;;13.00;99.90;;;;;;5043925;28;20029;-85
2024/02/16 11:55:50;;;;;;;15.52;9.35;;;13.00;99.90;;;;;;5056603;28;20043;-84
2024/02/16 11:58:19;;;;;;;13.85;8.88;;;12.90;99.90;;;;;;5061431;28;20135;-85
2024/02/16 12:00:47;;;;;;;14.60;9.85;;;12.90;99.90;;;;;;5043296;28;20009;-85
2024/02/16 12:03:19;;;;;;;14.68;8.63;;;12.80;99.90;;;;;;5061791;28;20092;-85
2024/02/16 12:05:58;;;;;;;14.23;9.00;;;12.80;99.90;;;;;;5058783;28;20076;-86
2024/02/16 12:08:31;;;;;;;16.60;9.73;;;12.80;99.90;;;;;;5061065;28;20029;-84
2024/02/16 12:10:57;;;;;;;14.02;9.43;;;12.80;99.90;;;;;;5043331;28;20023;-85
2024/02/16 12:13:26;;;;;;;13.93;9.10;;;12.80;99.90;;;;;;5043781;28;20023;-85
2024/02/16 12:15:52;;;;;;;14.18;8.80;;;12.80;99.90;;;;;;5059902;28;20025;-84
2024/02/16 12:18:25;;;;;;;13.52;7.93;;;12.80;99.90;;;;;;5043202;28;20028;-85
2024/02/16 12:21:09;;;;;;;11.17;7.50;;;12.80;99.90;;;;;;5041919;28;20032;-86
2024/02/16 12:23:36;;;;;;;12.88;7.82;;;12.80;99.90;;;;;;5058015;28;20021;-85
2024/02/16 12:26:03;;;;;;;11.48;8.20;;;12.80;99.90;;;;;;5043408;28;20451;-85
2024/02/16 12:28:32;;;;;;;15.38;8.00;;;12.80;99.90;;;;;;5043726;28;20017;-85
2024/02/16 12:31:01;;;;;;;13.13;7.35;;;12.80;99.90;;;;;;5042485;28;20469;-85
2024/02/16 12:33:27;;;;;;;11.90;6.93;;;12.80;99.90;;;;;;5061546;28;20017;-84
2024/02/16 12:35:54;;;;;;;13.45;7.63;;;12.80;99.90;;;;;;5060284;28;20032;-84
2024/02/16 12:38:19;;;;;;;10.98;7.85;;;12.80;99.90;;;;;;5043751;28;20036;-86
2024/02/16 12:40:49;;;;;;;12.38;7.60;;;12.80;99.90;;;;;;5042750;28;20025;-86
2024/02/16 12:43:15;;;;;;;11.80;7.63;;;12.70;99.90;;;;;;5038979;28;20040;-85